sensor_id;sensor_type;location;lat;lon;timestamp;P1;durP1;ratioP1;P2;durP2;ratioP2
18659;SDS011;9459;50.254;19.014;2022-11-20T00:01:10;72.53;;;40.10;;
18659;SDS011;9459;50.254;19.014;2022-11-20T00:03:41;72.45;;;41.03;;
18659;SDS011;9459;50.254;19.014;2022-11-20T00:06:10;79.00;;;40.97;;
18659;SDS011;9459;50.254;19.014;2022-11-20T00:08:40;74.03;;;42.97;;
18659;SDS011;9459;50.254;19.014;2022-11-20T00:11:09;79.53;;;43.00;;
18659;SDS011;9459;50.254;19.014;2022-11-20T00:13:41;79.72;;;41.85;;
18659;SDS011;9459;50.254;19.014;2022-11-20T00:16:10;83.60;;;44.22;;
18659;SDS011;9459;50.254;19.014;2022-11-20T00:18:39;79.93;;;44.80;;
18659;SDS011;9459;50.254;19.014;2022-11-20T00:21:11;85.40;;;45.63;;
18659;SDS011;9459;50.254;19.014;2022-11-20T00:23:40;87.55;;;45.97;;
18659;SDS011;9459;50.254;19.014;2022-11-20T00:26:09;83.43;;;44.78;;
18659;SDS011;9459;50.254;19.014;2022-11-20T00:28:38;86.88;;;45.72;;
18659;SDS011;9459;50.254;19.014;2022-11-20T00:31:07;79.60;;;42.90;;
18659;SDS011;9459;50.254;19.014;2022-11-20T00:33:37;84.15;;;44.08;;
18659;SDS011;9459;50.254;19.014;2022-11-20T00:36:06;80.93;;;42.63;;
18659;SDS011;9459;50.254;19.014;2022-11-20T00:38:37;81.40;;;41.83;;
18659;SDS011;9459;50.254;19.014;2022-11-20T00:41:06;85.65;;;43.17;;
18659;SDS011;9459;50.254;19.014;2022-11-20T00:43:35;80.97;;;42.42;;
18659;SDS011;9459;50.254;19.014;2022-11-20T00:46:04;78.78;;;41.47;;
18659;SDS011;9459;50.254;19.014;2022-11-20T00:48:34;79.97;;;42.75;;
18659;SDS011;9459;50.254;19.014;2022-11-20T00:51:02;86.78;;;43.63;;
18659;SDS011;9459;50.254;19.014;2022-11-20T00:53:31;82.03;;;44.90;;
18659;SDS011;9459;50.254;19.014;2022-11-20T00:56:01;91.90;;;48.28;;
18659;SDS011;9459;50.254;19.014;2022-11-20T00:58:31;90.45;;;47.17;;
18659;SDS011;9459;50.254;19.014;2022-11-20T01:01:00;90.43;;;46.75;;
18659;SDS011;9459;50.254;19.014;2022-11-20T01:03:30;90.40;;;46.72;;
18659;SDS011;9459;50.254;19.014;2022-11-20T01:06:02;94.15;;;47.17;;
18659;SDS011;9459;50.254;19.014;2022-11-20T01:08:31;94.72;;;48.25;;
18659;SDS011;9459;50.254;19.014;2022-11-20T01:11:02;93.28;;;49.00;;
18659;SDS011;9459;50.254;19.014;2022-11-20T01:13:32;103.38;;;51.53;;
18659;SDS011;9459;50.254;19.014;2022-11-20T01:16:08;104.00;;;51.75;;
18659;SDS011;9459;50.254;19.014;2022-11-20T01:18:38;98.32;;;50.80;;
18659;SDS011;9459;50.254;19.014;2022-11-20T01:21:09;101.40;;;50.80;;
18659;SDS011;9459;50.254;19.014;2022-11-20T01:26:10;98.70;;;49.58;;
18659;SDS011;9459;50.254;19.014;2022-11-20T01:28:40;99.60;;;52.45;;
18659;SDS011;9459;50.254;19.014;2022-11-20T01:31:12;111.68;;;55.15;;
18659;SDS011;9459;50.254;19.014;2022-11-20T01:33:42;105.78;;;52.83;;
18659;SDS011;9459;50.254;19.014;2022-11-20T01:36:11;107.50;;;54.95;;
18659;SDS011;9459;50.254;19.014;2022-11-20T01:38:40;113.95;;;56.42;;
18659;SDS011;9459;50.254;19.014;2022-11-20T01:41:10;119.47;;;60.63;;
18659;SDS011;9459;50.254;19.014;2022-11-20T01:44:00;120.70;;;60.90;;
18659;SDS011;9459;50.254;19.014;2022-11-20T01:46:28;122.00;;;62.00;;
18659;SDS011;9459;50.254;19.014;2022-11-20T01:48:57;129.82;;;64.55;;
18659;SDS011;9459;50.254;19.014;2022-11-20T01:51:29;135.32;;;67.93;;
18659;SDS011;9459;50.254;19.014;2022-11-20T01:54:02;137.57;;;67.35;;
18659;SDS011;9459;50.254;19.014;2022-11-20T01:56:35;141.10;;;67.55;;
18659;SDS011;9459;50.254;19.014;2022-11-20T01:59:05;144.10;;;68.95;;
18659;SDS011;9459;50.254;19.014;2022-11-20T02:01:35;150.50;;;70.47;;
18659;SDS011;9459;50.254;19.014;2022-11-20T02:04:03;138.90;;;69.80;;
18659;SDS011;9459;50.254;19.014;2022-11-20T02:06:32;134.23;;;65.97;;
18659;SDS011;9459;50.254;19.014;2022-11-20T02:09:03;131.68;;;67.60;;
18659;SDS011;9459;50.254;19.014;2022-11-20T02:11:31;141.77;;;68.72;;
18659;SDS011;9459;50.254;19.014;2022-11-20T02:14:01;144.40;;;70.22;;
18659;SDS011;9459;50.254;19.014;2022-11-20T02:16:29;145.43;;;72.40;;
18659;SDS011;9459;50.254;19.014;2022-11-20T02:19:00;157.93;;;75.70;;
18659;SDS011;9459;50.254;19.014;2022-11-20T02:21:33;155.27;;;75.18;;
18659;SDS011;9459;50.254;19.014;2022-11-20T02:24:05;152.02;;;75.10;;
18659;SDS011;9459;50.254;19.014;2022-11-20T02:26:38;145.00;;;72.95;;
18659;SDS011;9459;50.254;19.014;2022-11-20T02:29:10;150.88;;;77.45;;
18659;SDS011;9459;50.254;19.014;2022-11-20T02:31:40;157.50;;;76.22;;
18659;SDS011;9459;50.254;19.014;2022-11-20T02:34:09;155.07;;;77.65;;
18659;SDS011;9459;50.254;19.014;2022-11-20T02:36:38;160.00;;;79.18;;
18659;SDS011;9459;50.254;19.014;2022-11-20T02:39:08;160.95;;;79.53;;
18659;SDS011;9459;50.254;19.014;2022-11-20T02:41:37;163.60;;;80.80;;
18659;SDS011;9459;50.254;19.014;2022-11-20T02:44:06;153.10;;;76.47;;
18659;SDS011;9459;50.254;19.014;2022-11-20T02:46:34;154.93;;;75.88;;
18659;SDS011;9459;50.254;19.014;2022-11-20T02:49:03;145.20;;;72.63;;
18659;SDS011;9459;50.254;19.014;2022-11-20T02:51:32;147.55;;;71.57;;
18659;SDS011;9459;50.254;19.014;2022-11-20T02:54:00;138.65;;;69.53;;
18659;SDS011;9459;50.254;19.014;2022-11-20T02:56:30;128.07;;;64.43;;
18659;SDS011;9459;50.254;19.014;2022-11-20T02:58:59;134.05;;;65.10;;
18659;SDS011;9459;50.254;19.014;2022-11-20T03:01:27;127.80;;;63.42;;
18659;SDS011;9459;50.254;19.014;2022-11-20T03:03:55;128.00;;;63.90;;
18659;SDS011;9459;50.254;19.014;2022-11-20T03:06:24;128.25;;;62.08;;
18659;SDS011;9459;50.254;19.014;2022-11-20T03:08:52;121.82;;;63.00;;
18659;SDS011;9459;50.254;19.014;2022-11-20T03:11:20;117.75;;;60.88;;
18659;SDS011;9459;50.254;19.014;2022-11-20T03:33:12;107.68;;;54.25;;
18659;SDS011;9459;50.254;19.014;2022-11-20T07:34:02;67.60;;;41.92;;
18659;SDS011;9459;50.254;19.014;2022-11-20T07:36:30;65.47;;;42.10;;
18659;SDS011;9459;50.254;19.014;2022-11-20T07:38:58;64.63;;;44.38;;
18659;SDS011;9459;50.254;19.014;2022-11-20T07:41:26;73.75;;;47.35;;
18659;SDS011;9459;50.254;19.014;2022-11-20T07:43:55;65.18;;;43.50;;
18659;SDS011;9459;50.254;19.014;2022-11-20T07:46:24;69.80;;;44.80;;
18659;SDS011;9459;50.254;19.014;2022-11-20T07:48:53;67.30;;;45.58;;
18659;SDS011;9459;50.254;19.014;2022-11-20T07:51:22;68.43;;;44.75;;
18659;SDS011;9459;50.254;19.014;2022-11-20T07:53:50;63.75;;;43.25;;
18659;SDS011;9459;50.254;19.014;2022-11-20T07:56:19;68.20;;;48.15;;
18659;SDS011;9459;50.254;19.014;2022-11-20T07:58:47;68.88;;;46.90;;
18659;SDS011;9459;50.254;19.014;2022-11-20T08:01:15;67.20;;;46.33;;
18659;SDS011;9459;50.254;19.014;2022-11-20T08:03:44;62.95;;;43.85;;
18659;SDS011;9459;50.254;19.014;2022-11-20T08:06:12;63.45;;;45.13;;
18659;SDS011;9459;50.254;19.014;2022-11-20T08:08:42;66.22;;;44.92;;
18659;SDS011;9459;50.254;19.014;2022-11-20T08:11:11;69.70;;;45.92;;
18659;SDS011;9459;50.254;19.014;2022-11-20T08:13:57;72.38;;;45.95;;
18659;SDS011;9459;50.254;19.014;2022-11-20T08:16:40;75.60;;;46.13;;
18659;SDS011;9459;50.254;19.014;2022-11-20T08:19:08;73.00;;;47.03;;
18659;SDS011;9459;50.254;19.014;2022-11-20T08:21:37;74.78;;;45.90;;
18659;SDS011;9459;50.254;19.014;2022-11-20T08:24:07;73.53;;;46.45;;
18659;SDS011;9459;50.254;19.014;2022-11-20T08:26:36;92.88;;;49.75;;
18659;SDS011;9459;50.254;19.014;2022-11-20T08:29:06;78.13;;;47.70;;
18659;SDS011;9459;50.254;19.014;2022-11-20T08:31:34;78.38;;;45.95;;
18659;SDS011;9459;50.254;19.014;2022-11-20T08:34:22;85.72;;;47.30;;
18659;SDS011;9459;50.254;19.014;2022-11-20T08:36:51;77.65;;;43.72;;
18659;SDS011;9459;50.254;19.014;2022-11-20T08:39:20;79.75;;;47.53;;
18659;SDS011;9459;50.254;19.014;2022-11-20T08:41:49;80.13;;;47.03;;
18659;SDS011;9459;50.254;19.014;2022-11-20T08:44:17;71.80;;;39.53;;
18659;SDS011;9459;50.254;19.014;2022-11-20T08:46:45;76.00;;;44.30;;
18659;SDS011;9459;50.254;19.014;2022-11-20T08:49:14;86.97;;;50.03;;
18659;SDS011;9459;50.254;19.014;2022-11-20T08:51:42;103.20;;;50.75;;
18659;SDS011;9459;50.254;19.014;2022-11-20T08:54:11;80.70;;;43.85;;
18659;SDS011;9459;50.254;19.014;2022-11-20T08:56:41;84.22;;;41.63;;
18659;SDS011;9459;50.254;19.014;2022-11-20T08:59:09;72.22;;;41.15;;
18659;SDS011;9459;50.254;19.014;2022-11-20T09:01:57;86.57;;;45.42;;
18659;SDS011;9459;50.254;19.014;2022-11-20T09:04:26;69.20;;;40.15;;
18659;SDS011;9459;50.254;19.014;2022-11-20T09:06:54;64.93;;;37.72;;
18659;SDS011;9459;50.254;19.014;2022-11-20T09:09:22;73.50;;;39.92;;
18659;SDS011;9459;50.254;19.014;2022-11-20T09:11:52;65.70;;;37.08;;
18659;SDS011;9459;50.254;19.014;2022-11-20T09:14:21;90.72;;;50.75;;
18659;SDS011;9459;50.254;19.014;2022-11-20T09:16:51;83.45;;;51.75;;
18659;SDS011;9459;50.254;19.014;2022-11-20T09:19:19;83.15;;;44.38;;
18659;SDS011;9459;50.254;19.014;2022-11-20T09:22:02;67.40;;;38.80;;
18659;SDS011;9459;50.254;19.014;2022-11-20T09:24:30;59.85;;;35.33;;
18659;SDS011;9459;50.254;19.014;2022-11-20T09:27:02;57.28;;;35.88;;
18659;SDS011;9459;50.254;19.014;2022-11-20T09:29:31;55.83;;;30.98;;
18659;SDS011;9459;50.254;19.014;2022-11-20T09:31:59;51.08;;;29.77;;
18659;SDS011;9459;50.254;19.014;2022-11-20T09:34:28;56.30;;;30.63;;
18659;SDS011;9459;50.254;19.014;2022-11-20T09:36:56;52.75;;;29.35;;
18659;SDS011;9459;50.254;19.014;2022-11-20T09:39:30;57.90;;;33.13;;
18659;SDS011;9459;50.254;19.014;2022-11-20T09:42:03;114.85;;;60.17;;
18659;SDS011;9459;50.254;19.014;2022-11-20T09:44:48;78.30;;;40.38;;
18659;SDS011;9459;50.254;19.014;2022-11-20T09:47:23;67.00;;;36.88;;
18659;SDS011;9459;50.254;19.014;2022-11-20T09:49:59;63.35;;;37.63;;
18659;SDS011;9459;50.254;19.014;2022-11-20T09:52:40;63.83;;;37.67;;
18659;SDS011;9459;50.254;19.014;2022-11-20T09:55:14;47.95;;;28.60;;
18659;SDS011;9459;50.254;19.014;2022-11-20T09:57:44;52.20;;;30.25;;
18659;SDS011;9459;50.254;19.014;2022-11-20T10:00:14;49.65;;;29.55;;
18659;SDS011;9459;50.254;19.014;2022-11-20T10:02:44;47.72;;;28.77;;
18659;SDS011;9459;50.254;19.014;2022-11-20T10:05:17;54.72;;;32.03;;
18659;SDS011;9459;50.254;19.014;2022-11-20T10:07:48;75.50;;;43.92;;
18659;SDS011;9459;50.254;19.014;2022-11-20T10:10:26;102.25;;;49.17;;
18659;SDS011;9459;50.254;19.014;2022-11-20T10:13:02;55.95;;;32.63;;
18659;SDS011;9459;50.254;19.014;2022-11-20T10:15:40;85.83;;;44.77;;
18659;SDS011;9459;50.254;19.014;2022-11-20T10:18:19;52.28;;;29.48;;
18659;SDS011;9459;50.254;19.014;2022-11-20T10:20:54;45.95;;;28.02;;
18659;SDS011;9459;50.254;19.014;2022-11-20T10:23:41;52.97;;;29.90;;
18659;SDS011;9459;50.254;19.014;2022-11-20T10:26:16;63.17;;;34.30;;
18659;SDS011;9459;50.254;19.014;2022-11-20T10:28:51;51.97;;;29.80;;
18659;SDS011;9459;50.254;19.014;2022-11-20T10:31:49;46.88;;;29.13;;
18659;SDS011;9459;50.254;19.014;2022-11-20T10:34:22;46.00;;;27.75;;
18659;SDS011;9459;50.254;19.014;2022-11-20T10:36:54;91.13;;;52.83;;
18659;SDS011;9459;50.254;19.014;2022-11-20T10:39:25;47.08;;;28.67;;
18659;SDS011;9459;50.254;19.014;2022-11-20T10:41:59;58.50;;;31.60;;
18659;SDS011;9459;50.254;19.014;2022-11-20T10:44:29;44.92;;;27.67;;
18659;SDS011;9459;50.254;19.014;2022-11-20T10:47:22;55.55;;;32.30;;
18659;SDS011;9459;50.254;19.014;2022-11-20T10:49:50;52.75;;;30.35;;
18659;SDS011;9459;50.254;19.014;2022-11-20T10:52:23;45.97;;;27.48;;
18659;SDS011;9459;50.254;19.014;2022-11-20T10:54:56;84.32;;;47.63;;
18659;SDS011;9459;50.254;19.014;2022-11-20T10:57:31;46.88;;;29.63;;
18659;SDS011;9459;50.254;19.014;2022-11-20T11:00:11;35.58;;;23.05;;
18659;SDS011;9459;50.254;19.014;2022-11-20T11:02:41;44.83;;;27.35;;
18659;SDS011;9459;50.254;19.014;2022-11-20T11:05:25;39.10;;;24.15;;
18659;SDS011;9459;50.254;19.014;2022-11-20T11:07:59;50.00;;;29.60;;
18659;SDS011;9459;50.254;19.014;2022-11-20T11:10:28;39.75;;;24.45;;
18659;SDS011;9459;50.254;19.014;2022-11-20T11:13:01;112.70;;;63.20;;
18659;SDS011;9459;50.254;19.014;2022-11-20T11:15:36;53.55;;;30.70;;
18659;SDS011;9459;50.254;19.014;2022-11-20T11:18:08;59.72;;;34.80;;
18659;SDS011;9459;50.254;19.014;2022-11-20T11:20:36;71.40;;;39.20;;
18659;SDS011;9459;50.254;19.014;2022-11-20T11:23:10;56.20;;;32.30;;
18659;SDS011;9459;50.254;19.014;2022-11-20T11:25:56;58.03;;;31.90;;
18659;SDS011;9459;50.254;19.014;2022-11-20T11:28:26;42.22;;;25.98;;
18659;SDS011;9459;50.254;19.014;2022-11-20T11:30:56;50.03;;;31.20;;
18659;SDS011;9459;50.254;19.014;2022-11-20T11:33:25;48.75;;;27.80;;
18659;SDS011;9459;50.254;19.014;2022-11-20T11:35:55;44.50;;;29.40;;
18659;SDS011;9459;50.254;19.014;2022-11-20T11:38:28;45.83;;;29.70;;
18659;SDS011;9459;50.254;19.014;2022-11-20T11:40:57;42.47;;;28.50;;
18659;SDS011;9459;50.254;19.014;2022-11-20T11:43:27;43.45;;;27.77;;
18659;SDS011;9459;50.254;19.014;2022-11-20T11:46:23;68.03;;;44.28;;
18659;SDS011;9459;50.254;19.014;2022-11-20T11:48:55;43.95;;;26.65;;
18659;SDS011;9459;50.254;19.014;2022-11-20T11:51:26;41.22;;;26.88;;
18659;SDS011;9459;50.254;19.014;2022-11-20T11:53:58;41.95;;;27.17;;
18659;SDS011;9459;50.254;19.014;2022-11-20T11:56:27;73.57;;;45.17;;
18659;SDS011;9459;50.254;19.014;2022-11-20T11:58:56;50.78;;;31.63;;
18659;SDS011;9459;50.254;19.014;2022-11-20T12:01:29;43.97;;;27.63;;
18659;SDS011;9459;50.254;19.014;2022-11-20T12:04:03;52.00;;;30.38;;
18659;SDS011;9459;50.254;19.014;2022-11-20T12:06:32;49.67;;;28.20;;
18659;SDS011;9459;50.254;19.014;2022-11-20T12:09:04;54.88;;;34.65;;
18659;SDS011;9459;50.254;19.014;2022-11-20T12:11:34;50.40;;;31.08;;
18659;SDS011;9459;50.254;19.014;2022-11-20T12:14:09;51.97;;;31.50;;
18659;SDS011;9459;50.254;19.014;2022-11-20T12:16:42;53.13;;;30.30;;
18659;SDS011;9459;50.254;19.014;2022-11-20T12:19:11;46.50;;;28.60;;
18659;SDS011;9459;50.254;19.014;2022-11-20T12:21:44;46.40;;;27.70;;
18659;SDS011;9459;50.254;19.014;2022-11-20T12:24:42;56.33;;;38.20;;
18659;SDS011;9459;50.254;19.014;2022-11-20T12:27:28;51.83;;;31.38;;
18659;SDS011;9459;50.254;19.014;2022-11-20T12:30:07;65.65;;;39.30;;
18659;SDS011;9459;50.254;19.014;2022-11-20T12:32:45;57.60;;;36.27;;
18659;SDS011;9459;50.254;19.014;2022-11-20T12:35:32;59.95;;;37.53;;
18659;SDS011;9459;50.254;19.014;2022-11-20T12:38:20;51.42;;;32.50;;
18659;SDS011;9459;50.254;19.014;2022-11-20T12:41:15;49.95;;;29.83;;
18659;SDS011;9459;50.254;19.014;2022-11-20T12:44:04;60.58;;;34.20;;
18659;SDS011;9459;50.254;19.014;2022-11-20T12:46:57;53.70;;;31.33;;
18659;SDS011;9459;50.254;19.014;2022-11-20T12:49:38;72.13;;;44.28;;
18659;SDS011;9459;50.254;19.014;2022-11-20T12:52:14;54.78;;;33.70;;
18659;SDS011;9459;50.254;19.014;2022-11-20T12:54:59;60.95;;;37.50;;
18659;SDS011;9459;50.254;19.014;2022-11-20T12:57:37;68.60;;;39.75;;
18659;SDS011;9459;50.254;19.014;2022-11-20T13:00:12;58.67;;;35.38;;
18659;SDS011;9459;50.254;19.014;2022-11-20T13:03:00;81.63;;;47.35;;
18659;SDS011;9459;50.254;19.014;2022-11-20T13:05:46;63.28;;;38.15;;
18659;SDS011;9459;50.254;19.014;2022-11-20T13:08:20;91.95;;;50.05;;
18659;SDS011;9459;50.254;19.014;2022-11-20T13:10:51;65.47;;;38.53;;
18659;SDS011;9459;50.254;19.014;2022-11-20T13:13:27;63.90;;;37.95;;
18659;SDS011;9459;50.254;19.014;2022-11-20T13:16:00;71.88;;;44.88;;
18659;SDS011;9459;50.254;19.014;2022-11-20T13:18:34;66.93;;;37.78;;
18659;SDS011;9459;50.254;19.014;2022-11-20T13:21:16;62.10;;;39.20;;
18659;SDS011;9459;50.254;19.014;2022-11-20T13:24:05;63.88;;;36.17;;
18659;SDS011;9459;50.254;19.014;2022-11-20T13:26:34;89.50;;;54.53;;
18659;SDS011;9459;50.254;19.014;2022-11-20T13:29:07;90.22;;;52.60;;
18659;SDS011;9459;50.254;19.014;2022-11-20T13:31:38;76.20;;;45.28;;
18659;SDS011;9459;50.254;19.014;2022-11-20T13:34:11;65.60;;;37.90;;
18659;SDS011;9459;50.254;19.014;2022-11-20T13:36:49;67.22;;;38.45;;
18659;SDS011;9459;50.254;19.014;2022-11-20T13:39:25;63.38;;;37.17;;
18659;SDS011;9459;50.254;19.014;2022-11-20T13:41:54;66.75;;;39.25;;
18659;SDS011;9459;50.254;19.014;2022-11-20T13:44:24;65.00;;;38.13;;
18659;SDS011;9459;50.254;19.014;2022-11-20T13:46:54;70.25;;;41.13;;
18659;SDS011;9459;50.254;19.014;2022-11-20T13:49:24;71.72;;;40.65;;
18659;SDS011;9459;50.254;19.014;2022-11-20T13:51:57;73.60;;;42.20;;
18659;SDS011;9459;50.254;19.014;2022-11-20T13:54:45;76.28;;;42.83;;
18659;SDS011;9459;50.254;19.014;2022-11-20T13:57:26;78.95;;;44.78;;
18659;SDS011;9459;50.254;19.014;2022-11-20T14:00:16;79.63;;;47.58;;
18659;SDS011;9459;50.254;19.014;2022-11-20T14:02:52;78.95;;;43.85;;
18659;SDS011;9459;50.254;19.014;2022-11-20T14:05:27;89.47;;;57.35;;
18659;SDS011;9459;50.254;19.014;2022-11-20T14:07:58;82.70;;;46.42;;
18659;SDS011;9459;50.254;19.014;2022-11-20T14:10:27;72.95;;;43.03;;
18659;SDS011;9459;50.254;19.014;2022-11-20T14:12:58;82.55;;;46.05;;
18659;SDS011;9459;50.254;19.014;2022-11-20T14:15:28;89.90;;;49.78;;
18659;SDS011;9459;50.254;19.014;2022-11-20T14:17:57;78.03;;;46.38;;
18659;SDS011;9459;50.254;19.014;2022-11-20T14:20:27;88.28;;;48.28;;
18659;SDS011;9459;50.254;19.014;2022-11-20T14:22:59;78.75;;;44.88;;
18659;SDS011;9459;50.254;19.014;2022-11-20T14:25:27;75.35;;;43.53;;
18659;SDS011;9459;50.254;19.014;2022-11-20T14:27:58;89.97;;;50.80;;
18659;SDS011;9459;50.254;19.014;2022-11-20T14:30:28;88.30;;;49.17;;
18659;SDS011;9459;50.254;19.014;2022-11-20T14:33:03;91.22;;;51.42;;
18659;SDS011;9459;50.254;19.014;2022-11-20T14:35:34;85.32;;;47.45;;
18659;SDS011;9459;50.254;19.014;2022-11-20T14:38:13;88.47;;;50.42;;
18659;SDS011;9459;50.254;19.014;2022-11-20T14:40:43;89.03;;;48.63;;
18659;SDS011;9459;50.254;19.014;2022-11-20T14:43:16;81.45;;;47.25;;
18659;SDS011;9459;50.254;19.014;2022-11-20T14:45:48;84.70;;;47.40;;
18659;SDS011;9459;50.254;19.014;2022-11-20T14:48:21;86.70;;;50.08;;
18659;SDS011;9459;50.254;19.014;2022-11-20T14:50:52;86.45;;;48.88;;
18659;SDS011;9459;50.254;19.014;2022-11-20T14:53:23;88.30;;;49.25;;
18659;SDS011;9459;50.254;19.014;2022-11-20T14:55:56;85.30;;;48.20;;
18659;SDS011;9459;50.254;19.014;2022-11-20T14:58:26;99.20;;;51.33;;
18659;SDS011;9459;50.254;19.014;2022-11-20T15:00:56;89.50;;;48.35;;
18659;SDS011;9459;50.254;19.014;2022-11-20T15:03:30;92.55;;;53.00;;
18659;SDS011;9459;50.254;19.014;2022-11-20T15:05:59;87.28;;;50.08;;
18659;SDS011;9459;50.254;19.014;2022-11-20T15:08:29;79.93;;;45.10;;
18659;SDS011;9459;50.254;19.014;2022-11-20T15:10:58;81.50;;;44.40;;
18659;SDS011;9459;50.254;19.014;2022-11-20T15:13:26;78.07;;;45.88;;
18659;SDS011;9459;50.254;19.014;2022-11-20T15:15:58;87.18;;;48.28;;
18659;SDS011;9459;50.254;19.014;2022-11-20T15:18:27;80.50;;;48.63;;
18659;SDS011;9459;50.254;19.014;2022-11-20T15:20:58;90.60;;;51.10;;
18659;SDS011;9459;50.254;19.014;2022-11-20T15:23:30;83.05;;;46.40;;
18659;SDS011;9459;50.254;19.014;2022-11-20T15:25:59;81.43;;;47.63;;
18659;SDS011;9459;50.254;19.014;2022-11-20T15:28:27;82.90;;;43.92;;
18659;SDS011;9459;50.254;19.014;2022-11-20T15:33:26;74.95;;;42.30;;
18659;SDS011;9459;50.254;19.014;2022-11-20T15:35:55;93.93;;;52.25;;
18659;SDS011;9459;50.254;19.014;2022-11-20T15:38:24;82.68;;;44.75;;
18659;SDS011;9459;50.254;19.014;2022-11-20T15:40:54;80.70;;;44.35;;
18659;SDS011;9459;50.254;19.014;2022-11-20T15:43:22;81.38;;;43.50;;
18659;SDS011;9459;50.254;19.014;2022-11-20T15:45:50;82.05;;;44.40;;
18659;SDS011;9459;50.254;19.014;2022-11-20T15:48:21;77.65;;;44.42;;
18659;SDS011;9459;50.254;19.014;2022-11-20T15:50:52;83.65;;;44.88;;
18659;SDS011;9459;50.254;19.014;2022-11-20T15:53:22;93.78;;;50.05;;
18659;SDS011;9459;50.254;19.014;2022-11-20T15:55:50;84.15;;;47.45;;
18659;SDS011;9459;50.254;19.014;2022-11-20T15:58:20;90.18;;;50.45;;
18659;SDS011;9459;50.254;19.014;2022-11-20T16:00:49;86.22;;;49.10;;
18659;SDS011;9459;50.254;19.014;2022-11-20T16:03:18;90.57;;;50.40;;
18659;SDS011;9459;50.254;19.014;2022-11-20T16:05:46;88.82;;;52.35;;
18659;SDS011;9459;50.254;19.014;2022-11-20T16:08:15;95.97;;;53.58;;
18659;SDS011;9459;50.254;19.014;2022-11-20T16:10:43;93.90;;;50.63;;
18659;SDS011;9459;50.254;19.014;2022-11-20T16:13:12;84.50;;;47.55;;
18659;SDS011;9459;50.254;19.014;2022-11-20T16:16:01;96.13;;;51.75;;
18659;SDS011;9459;50.254;19.014;2022-11-20T16:18:32;88.15;;;47.47;;
18659;SDS011;9459;50.254;19.014;2022-11-20T16:21:01;93.95;;;50.13;;
18659;SDS011;9459;50.254;19.014;2022-11-20T16:23:29;90.75;;;49.90;;
18659;SDS011;9459;50.254;19.014;2022-11-20T16:25:58;90.20;;;50.13;;
18659;SDS011;9459;50.254;19.014;2022-11-20T16:28:26;93.85;;;51.08;;
18659;SDS011;9459;50.254;19.014;2022-11-20T16:30:54;95.53;;;50.67;;
18659;SDS011;9459;50.254;19.014;2022-11-20T16:33:24;96.30;;;52.50;;
18659;SDS011;9459;50.254;19.014;2022-11-20T16:35:52;95.43;;;53.53;;
18659;SDS011;9459;50.254;19.014;2022-11-20T16:38:20;88.45;;;49.65;;
18659;SDS011;9459;50.254;19.014;2022-11-20T16:40:49;98.70;;;51.88;;
18659;SDS011;9459;50.254;19.014;2022-11-20T16:43:17;106.25;;;52.42;;
18659;SDS011;9459;50.254;19.014;2022-11-20T16:45:46;94.95;;;51.83;;
18659;SDS011;9459;50.254;19.014;2022-11-20T16:48:14;91.53;;;50.10;;
18659;SDS011;9459;50.254;19.014;2022-11-20T16:50:48;92.30;;;49.20;;
18659;SDS011;9459;50.254;19.014;2022-11-20T16:53:18;92.85;;;49.08;;
18659;SDS011;9459;50.254;19.014;2022-11-20T16:55:47;85.15;;;47.03;;
18659;SDS011;9459;50.254;19.014;2022-11-20T16:58:16;80.72;;;44.67;;
18659;SDS011;9459;50.254;19.014;2022-11-20T17:00:44;86.88;;;46.00;;
18659;SDS011;9459;50.254;19.014;2022-11-20T17:03:17;84.82;;;45.25;;
18659;SDS011;9459;50.254;19.014;2022-11-20T17:05:47;77.85;;;41.50;;
18659;SDS011;9459;50.254;19.014;2022-11-20T17:08:16;80.05;;;41.90;;
18659;SDS011;9459;50.254;19.014;2022-11-20T17:10:45;93.63;;;49.08;;
18659;SDS011;9459;50.254;19.014;2022-11-20T17:13:13;89.82;;;47.90;;
18659;SDS011;9459;50.254;19.014;2022-11-20T17:15:42;91.05;;;49.40;;
18659;SDS011;9459;50.254;19.014;2022-11-20T17:18:10;82.88;;;43.72;;
18659;SDS011;9459;50.254;19.014;2022-11-20T17:20:39;82.95;;;43.55;;
18659;SDS011;9459;50.254;19.014;2022-11-20T17:23:08;91.57;;;45.70;;
18659;SDS011;9459;50.254;19.014;2022-11-20T17:25:37;99.82;;;47.85;;
18659;SDS011;9459;50.254;19.014;2022-11-20T17:28:05;119.43;;;52.45;;
18659;SDS011;9459;50.254;19.014;2022-11-20T17:30:33;100.03;;;49.30;;
18659;SDS011;9459;50.254;19.014;2022-11-20T17:33:02;101.18;;;49.83;;
18659;SDS011;9459;50.254;19.014;2022-11-20T17:35:30;85.47;;;45.45;;
18659;SDS011;9459;50.254;19.014;2022-11-20T17:37:58;80.38;;;43.95;;
18659;SDS011;9459;50.254;19.014;2022-11-20T17:40:28;77.28;;;41.88;;
18659;SDS011;9459;50.254;19.014;2022-11-20T17:42:57;77.10;;;42.50;;
18659;SDS011;9459;50.254;19.014;2022-11-20T17:45:26;84.45;;;42.72;;
18659;SDS011;9459;50.254;19.014;2022-11-20T17:47:54;77.75;;;40.90;;
18659;SDS011;9459;50.254;19.014;2022-11-20T17:50:23;74.90;;;41.30;;
18659;SDS011;9459;50.254;19.014;2022-11-20T17:52:52;69.88;;;37.92;;
18659;SDS011;9459;50.254;19.014;2022-11-20T17:55:21;73.38;;;37.28;;
18659;SDS011;9459;50.254;19.014;2022-11-20T17:57:50;69.00;;;36.95;;
18659;SDS011;9459;50.254;19.014;2022-11-20T18:00:18;75.30;;;38.03;;
18659;SDS011;9459;50.254;19.014;2022-11-20T18:02:46;65.80;;;35.15;;
18659;SDS011;9459;50.254;19.014;2022-11-20T18:05:15;62.80;;;34.88;;
18659;SDS011;9459;50.254;19.014;2022-11-20T18:07:43;65.20;;;35.50;;
18659;SDS011;9459;50.254;19.014;2022-11-20T18:10:12;61.08;;;33.30;;
18659;SDS011;9459;50.254;19.014;2022-11-20T18:12:40;73.97;;;36.58;;
18659;SDS011;9459;50.254;19.014;2022-11-20T18:15:11;67.43;;;36.63;;
18659;SDS011;9459;50.254;19.014;2022-11-20T18:17:39;65.25;;;36.78;;
18659;SDS011;9459;50.254;19.014;2022-11-20T18:20:08;68.20;;;37.63;;
18659;SDS011;9459;50.254;19.014;2022-11-20T18:22:55;68.57;;;38.10;;
18659;SDS011;9459;50.254;19.014;2022-11-20T18:25:23;66.75;;;38.00;;
18659;SDS011;9459;50.254;19.014;2022-11-20T18:27:52;76.05;;;39.83;;
18659;SDS011;9459;50.254;19.014;2022-11-20T18:30:22;75.05;;;40.95;;
18659;SDS011;9459;50.254;19.014;2022-11-20T18:32:50;77.93;;;40.88;;
18659;SDS011;9459;50.254;19.014;2022-11-20T18:35:19;78.78;;;41.30;;
18659;SDS011;9459;50.254;19.014;2022-11-20T18:37:47;75.22;;;40.45;;
18659;SDS011;9459;50.254;19.014;2022-11-20T18:40:16;83.47;;;43.80;;
18659;SDS011;9459;50.254;19.014;2022-11-20T18:42:44;82.85;;;42.40;;
18659;SDS011;9459;50.254;19.014;2022-11-20T18:45:31;87.55;;;45.08;;
18659;SDS011;9459;50.254;19.014;2022-11-20T18:48:00;85.72;;;42.55;;
18659;SDS011;9459;50.254;19.014;2022-11-20T18:50:28;85.82;;;42.88;;
18659;SDS011;9459;50.254;19.014;2022-11-20T18:52:56;85.05;;;41.20;;
18659;SDS011;9459;50.254;19.014;2022-11-20T18:55:25;74.22;;;38.13;;
18659;SDS011;9459;50.254;19.014;2022-11-20T18:57:53;78.70;;;39.03;;
18659;SDS011;9459;50.254;19.014;2022-11-20T19:00:22;82.30;;;39.50;;
18659;SDS011;9459;50.254;19.014;2022-11-20T19:02:52;77.35;;;38.65;;
18659;SDS011;9459;50.254;19.014;2022-11-20T19:05:21;68.53;;;36.60;;
18659;SDS011;9459;50.254;19.014;2022-11-20T19:07:49;58.95;;;32.53;;